^^
Saratoga-Weather Station Historical Data
Daily Summary for June 9, 2021 Units:  English    Metric   Both
Daily Weekly Monthly Yearly Custom
  High: Low: Average:
Temperature: 76.3 °F 59.5 °F 66.4 °F
Dew Point: 70.7 °F 55.6 °F 62.2 °F
Humidity: 95% 67% 87%
Wind Speed: 4mph 0mph 0.6mph
Wind Gust: 8mph - -
Wind- - SSW
Pressure: 29.9 in 29.8 in -
Precipitation: 0.19 in    
Historical Graphs
 
 
Tabular Data for June 9, 2021
Time Temperature Dew Point Pressure Wind Wind Speed Wind Gust Humidity Rainfall Rate (Hourly) solar
00:03 62.4 °F 56.8 °F 29.9 in Calm     82% 0 in 0 W/m2
00:08 62.2 °F 56.7 °F 29.9 in Calm     82% 0 in 0 W/m2
00:13 62.2 °F 56.7 °F 29.9 in Calm     82% 0 in 0 W/m2
00:19 62.2 °F 56.7 °F 29.9 in Calm     82% 0 in 0 W/m2
00:24 62.1 °F 56.5 °F 29.9 in Calm     82% 0 in 0 W/m2
00:29 62.1 °F 56.8 °F 29.9 in Calm     83% 0 in 0 W/m2
00:34 61.9 °F 56.7 °F 29.9 in Calm     83% 0 in 0 W/m2
00:39 61.9 °F 57 °F 29.9 in Calm     84% 0 in 0 W/m2
00:44 61.9 °F 57 °F 29.9 in Calm     84% 0 in 0 W/m2
00:49 61.9 °F 57 °F 29.9 in Calm     84% 0 in 0 W/m2
00:54 61.9 °F 57 °F 29.9 in Calm     84% 0 in 0 W/m2
00:59 61.7 °F 56.8 °F 29.9 in Calm     84% 0 in 0 W/m2
01:04 61.5 °F 56.7 °F 29.9 in Calm     84% 0 in 0 W/m2
01:09 61.3 °F 56.5 °F 29.9 in Calm     84% 0 in 0 W/m2
01:14 61.3 °F 56.5 °F 29.9 in Calm     84% 0 in 0 W/m2
01:19 61.3 °F 56.8 °F 29.9 in Calm     85% 0 in 0 W/m2
01:24 61.3 °F 56.8 °F 29.9 in Calm     85% 0 in 0 W/m2
01:29 61.2 °F 56.7 °F 29.9 in Calm     85% 0 in 0 W/m2
01:34 61.2 °F 56.7 °F 29.9 in Calm     85% 0 in 0 W/m2
01:39 61.2 °F 56.7 °F 29.9 in Calm     85% 0 in 0 W/m2
01:44 61.2 °F 56.7 °F 29.9 in Calm     85% 0 in 0 W/m2
01:49 61.2 °F 56.7 °F 29.9 in Calm     85% 0 in 0 W/m2
01:54 61 °F 56.5 °F 29.9 in Calm     85% 0 in 0 W/m2
01:59 61.2 °F 56.7 °F 29.9 in Calm     85% 0 in 0 W/m2
02:04 61.2 °F 56.7 °F 29.8 in Calm     85% 0 in 0 W/m2
02:09 61.2 °F 56.7 °F 29.8 in Calm     85% 0 in 0 W/m2
02:14 61.2 °F 56.7 °F 29.8 in Calm     85% 0 in 0 W/m2
02:19 61 °F 56.5 °F 29.8 in Calm     85% 0 in 0 W/m2
02:24 61 °F 56.5 °F 29.8 in Calm     85% 0 in 0 W/m2
02:29 61 °F 56.5 °F 29.8 in Calm     85% 0 in 0 W/m2
02:34 61 °F 56.5 °F 29.8 in Calm     85% 0 in 0 W/m2
02:39 61 °F 56.5 °F 29.8 in Calm     85% 0 in 0 W/m2
02:44 60.8 °F 56.7 °F 29.8 in Calm     86% 0 in 0 W/m2
02:49 60.6 °F 56.5 °F 29.8 in Calm     86% 0 in 0 W/m2
02:55 60.6 °F 56.5 °F 29.8 in Calm     86% 0 in 0 W/m2
03:00 60.4 °F 56.3 °F 29.8 in Calm     86% 0 in 0 W/m2
03:05 60.4 °F 56.3 °F 29.8 in Calm     86% 0 in 0 W/m2
03:10 60.3 °F 56.1 °F 29.8 in Calm     86% 0 in 0 W/m2
03:15 60.3 °F 56.1 °F 29.8 in Calm     86% 0 in 0 W/m2
03:20 60.3 °F 56.1 °F 29.8 in Calm     86% 0 in 0 W/m2
03:25 60.1 °F 55.9 °F 29.8 in Calm     86% 0 in 0 W/m2
03:30 60.1 °F 55.9 °F 29.8 in Calm     86% 0 in 0 W/m2
03:35 60.1 °F 55.9 °F 29.8 in Calm     86% 0 in 0 W/m2
03:40 60.1 °F 56.1 °F 29.8 in Calm     87% 0 in 0 W/m2
03:45 59.9 °F 55.9 °F 29.8 in Calm     87% 0 in 0 W/m2
03:50 59.7 °F 55.8 °F 29.8 in Calm     87% 0 in 0 W/m2
03:55 59.7 °F 55.8 °F 29.8 in Calm     87% 0 in 0 W/m2
04:01 59.7 °F 55.8 °F 29.8 in Calm     87% 0 in 0 W/m2
04:06 59.5 °F 55.6 °F 29.8 in Calm     87% 0 in 0 W/m2
04:11 59.5 °F 55.9 °F 29.8 in Calm     88% 0 in 0 W/m2
04:16 59.5 °F 55.9 °F 29.8 in Calm     88% 0 in 0 W/m2
04:21 59.5 °F 55.9 °F 29.8 in Calm     88% 0 in 0 W/m2
04:26 59.5 °F 55.9 °F 29.8 in Calm     88% 0 in 0 W/m2
04:31 59.5 °F 55.9 °F 29.8 in Calm     88% 0 in 0 W/m2
04:36 59.5 °F 55.9 °F 29.8 in Calm     88% 0 in 0 W/m2
04:41 59.7 °F 56.1 °F 29.8 in Calm     88% 0 in 0 W/m2
04:46 59.7 °F 56.1 °F 29.8 in Calm     88% 0 in 0 W/m2
04:51 59.9 °F 56.3 °F 29.8 in Calm     88% 0 in 0 W/m2
04:56 60.1 °F 56.5 °F 29.8 in Calm     88% 0 in 0 W/m2
05:01 60.4 °F 56.8 °F 29.8 in Calm     88% 0 in 0 W/m2
05:06 60.6 °F 57 °F 29.8 in Calm     88% 0 in 0 W/m2
05:11 60.8 °F 57.2 °F 29.8 in Calm     88% 0 in 0 W/m2
05:16 61 °F 57 °F 29.8 in Calm     87% 0 in 0 W/m2
05:21 61.2 °F 57.2 °F 29.8 in Calm     87% 0 in 0 W/m2
05:26 61.2 °F 57.2 °F 29.8 in Calm     87% 0 in 0 W/m2
05:31 61.2 °F 57.2 °F 29.8 in Calm     87% 0 in 0 W/m2
05:36 61.3 °F 57.4 °F 29.8 in Calm     87% 0 in 0 W/m2
05:41 61.3 °F 57.4 °F 29.8 in Calm     87% 0 in 0 W/m2
05:46 61.3 °F 57.4 °F 29.8 in Calm     87% 0 in 0 W/m2
05:51 61.3 °F 57.4 °F 29.8 in Calm     87% 0 in 0 W/m2
05:56 61.5 °F 57.6 °F 29.8 in Calm     87% 0 in 0 W/m2
06:01 61.7 °F 58.1 °F 29.8 in Calm   1 mph 88% 0 in 0 W/m2
06:06 61.7 °F 58.5 °F 29.8 in Calm     89% 0.01 in 0 W/m2
06:11 61.5 °F 58.3 °F 29.8 in Calm   1 mph 89% 0.01 in 0 W/m2
06:16 61.5 °F 58.6 °F 29.8 in Calm     90% 0.01 in 0 W/m2
06:21 61.3 °F 58.6 °F 29.8 in Calm   1 mph 91% 0.01 in 0 W/m2
06:26 61.2 °F 58.5 °F 29.8 in Calm   1 mph 91% 0.01 in 0 W/m2
06:31 61.2 °F 58.8 °F 29.8 in Calm   1 mph 92% 0.01 in 0 W/m2
06:36 61 °F 58.6 °F 29.8 in Calm     92% 0.01 in 0 W/m2
06:41 60.6 °F 58.3 °F 29.8 in Calm     92% 0.01 in 0 W/m2
06:46 60.4 °F 58.1 °F 29.8 in Calm     92% 0.01 in 0 W/m2
06:51 60.4 °F 58.1 °F 29.8 in Calm     92% 0.01 in 0 W/m2
06:56 60.3 °F 57.9 °F 29.8 in Calm     92% 0.01 in 0 W/m2
07:01 60.1 °F 58.1 °F 29.8 in Calm     93% 0.01 in 0 W/m2
07:06 60.1 °F 58.1 °F 29.8 in Calm     93% 0 in 0 W/m2
07:11 59.7 °F 57.7 °F 29.8 in Calm     93% 0 in 5 W/m2
07:16 59.5 °F 57.6 °F 29.8 in Calm     93% 0 in 7 W/m2
07:21 59.5 °F 57.6 °F 29.8 in Calm     93% 0 in 9 W/m2
07:26 59.5 °F 57.6 °F 29.8 in Calm     93% 0 in 12 W/m2
07:31 59.5 °F 57.7 °F 29.8 in Calm     94% 0 in 19 W/m2
07:36 59.5 °F 57.7 °F 29.8 in Calm     94% 0 in 30 W/m2
07:41 59.5 °F 57.7 °F 29.8 in Calm     94% 0 in 42 W/m2
07:46 59.5 °F 57.7 °F 29.8 in Calm   1 mph 94% 0 in 47 W/m2
07:51 59.5 °F 57.7 °F 29.8 in Calm     94% 0 in 46 W/m2
07:56 59.7 °F 57.9 °F 29.8 in SW 0.9 mph 2 mph 94% 0 in 54 W/m2
08:01 60.1 °F 58.3 °F 29.8 in NNW 0.9 mph 5 mph 94% 0.01 in 65 W/m2
08:06 60.3 °F 58.5 °F 29.8 in West 2 mph 3 mph 94% 0.01 in 77 W/m2
08:11 60.4 °F 58.6 °F 29.8 in Calm   5 mph 94% 0.01 in 81 W/m2
08:16 61 °F 59.2 °F 29.8 in North 0.9 mph 1 mph 94% 0.01 in 83 W/m2
08:21 61.2 °F 59.4 °F 29.8 in Calm   2 mph 94% 0.01 in 105 W/m2
08:26 61.3 °F 59.5 °F 29.8 in Calm     94% 0.01 in 95 W/m2
08:31 61.9 °F 60.1 °F 29.8 in NW 0.9 mph 2 mph 94% 0.01 in 107 W/m2
08:36 62.2 °F 60.3 °F 29.8 in SW 0.9 mph 2 mph 93% 0.01 in 125 W/m2
08:41 63 °F 61 °F 29.8 in NW 2 mph 3 mph 93% 0.01 in 195 W/m2
08:46 63.9 °F 61.5 °F 29.8 in NW 2.9 mph 3 mph 92% 0.01 in 102 W/m2
08:51 64.2 °F 61.2 °F 29.8 in Calm   2 mph 90% 0.01 in 83 W/m2
08:57 64.6 °F 61.3 °F 29.8 in Calm   1 mph 89% 0.01 in 81 W/m2
09:02 64.8 °F 61.5 °F 29.8 in Calm   2 mph 89% 0 in 93 W/m2
09:07 64.9 °F 61.7 °F 29.9 in ESE 2 mph 2 mph 89% 0 in 77 W/m2
09:12 64.9 °F 61.3 °F 29.9 in ESE 2 mph 3 mph 88% 0 in 62 W/m2
09:17 65.1 °F 61.9 °F 29.9 in ESE 2 mph 3 mph 89% 0 in 44 W/m2
09:22 65.1 °F 61.9 °F 29.9 in North 0.9 mph 2 mph 89% 0 in 44 W/m2
09:27 65.1 °F 61.5 °F 29.9 in NW 2.9 mph 4 mph 88% 0 in 58 W/m2
09:32 65.5 °F 61.5 °F 29.9 in Calm   7 mph 87% 0 in 62 W/m2
09:37 65.5 °F 61.5 °F 29.9 in Calm   2 mph 87% 0 in 54 W/m2
09:42 65.7 °F 61.7 °F 29.9 in ENE 0.9 mph 2 mph 87% 0 in 42 W/m2
09:47 65.8 °F 61.9 °F 29.9 in North 0.9 mph 1 mph 87% 0 in 26 W/m2
09:52 66 °F 62.1 °F 29.9 in Calm   2 mph 87% 0 in 25 W/m2
09:57 66 °F 62.1 °F 29.9 in Calm   2 mph 87% 0 in 28 W/m2
10:02 66 °F 62.4 °F 29.9 in Calm   2 mph 88% 0 in 33 W/m2
10:07 66 °F 62.4 °F 29.9 in Calm     88% 0 in 30 W/m2
10:12 66 °F 62.6 °F 29.9 in Calm     89% 0 in 42 W/m2
10:17 66 °F 62.6 °F 29.9 in NE 0.9 mph 1 mph 89% 0 in 56 W/m2
10:22 66 °F 62.6 °F 29.9 in Calm     89% 0 in 83 W/m2
10:27 66.4 °F 63 °F 29.9 in North 2 mph 2 mph 89% 0 in 63 W/m2
10:32 66.6 °F 63.1 °F 29.9 in NW 2 mph 3 mph 89% 0 in 42 W/m2
10:37 66.7 °F 63.3 °F 29.9 in NW 2 mph 4 mph 89% 0.02 in 35 W/m2
10:42 66.6 °F 63.5 °F 29.9 in WNW 0.9 mph 2 mph 90% 0.07 in 35 W/m2
10:47 66.4 °F 63.7 °F 29.9 in Calm   1 mph 91% 0.08 in 26 W/m2
10:52 66.4 °F 63.7 °F 29.9 in Calm   1 mph 91% 0.08 in 26 W/m2
10:57 66 °F 63.7 °F 29.9 in West 0.9 mph 3 mph 92% 0.09 in 25 W/m2
11:02 66 °F 63.7 °F 29.9 in Calm     92% 0.09 in 25 W/m2
11:07 65.8 °F 63.7 °F 29.9 in NW 2 mph 3 mph 93% 0.09 in 26 W/m2
11:12 65.8 °F 63.7 °F 29.9 in West 2.9 mph 3 mph 93% 0.09 in 28 W/m2
11:17 65.7 °F 63.5 °F 29.9 in West 2 mph 4 mph 93% 0.09 in 33 W/m2
11:22 65.5 °F 63.7 °F 29.9 in West 2.9 mph 4 mph 94% 0.1 in 39 W/m2
11:27 65.3 °F 63.5 °F 29.9 in West 2.9 mph 3 mph 94% 0.11 in 47 W/m2
11:32 65.3 °F 63.5 °F 29.9 in NW 0.9 mph 3 mph 94% 0.12 in 56 W/m2
11:37 65.5 °F 63.7 °F 29.9 in Calm   1 mph 94% 0.09 in 63 W/m2
11:42 65.5 °F 63.7 °F 29.9 in WNW 0.9 mph 1 mph 94% 0.06 in 70 W/m2
11:47 65.7 °F 63.9 °F 29.9 in Calm   1 mph 94% 0.05 in 77 W/m2
11:52 65.8 °F 64 °F 29.9 in Calm     94% 0.06 in 86 W/m2
11:57 65.8 °F 64 °F 29.9 in NE 2 mph 2 mph 94% 0.05 in 97 W/m2
12:02 66 °F 64.2 °F 29.9 in Calm   2 mph 94% 0.06 in 111 W/m2
12:07 66 °F 64.2 °F 29.9 in Calm     94% 0.06 in 120 W/m2
12:12 66 °F 64.2 °F 29.9 in Calm   2 mph 94% 0.06 in 128 W/m2
12:17 66 °F 64.6 °F 29.9 in Calm     95% 0.06 in 142 W/m2
12:22 66.2 °F 64.4 °F 29.9 in Calm   1 mph 94% 0.06 in 158 W/m2
12:27 66.6 °F 64.8 °F 29.9 in East 0.9 mph 3 mph 94% 0.06 in 178 W/m2
12:32 66.6 °F 64.8 °F 29.9 in Calm   2 mph 94% 0.05 in 218 W/m2
12:37 66.7 °F 65.3 °F 29.9 in Calm   3 mph 95% 0.06 in 299 W/m2
12:42 67.3 °F 65.8 °F 29.9 in ENE 0.9 mph 3 mph 95% 0.05 in 371 W/m2
12:47 67.6 °F 66.2 °F 29.9 in Calm   2 mph 95% 0.05 in 258 W/m2
12:52 67.8 °F 66 °F 29.9 in Calm   2 mph 94% 0.04 in 325 W/m2
12:57 68 °F 66.2 °F 29.9 in ENE 0.9 mph 2 mph 94% 0.04 in 795 W/m2
13:02 68.5 °F 66.7 °F 29.9 in ESE 2 mph 3 mph 94% 0.02 in 487 W/m2
13:07 69.1 °F 66.9 °F 29.9 in NE 2 mph 3 mph 93% 0.02 in 246 W/m2
13:12 69.1 °F 66.7 °F 29.9 in Calm   2 mph 92% 0.02 in 276 W/m2
13:17 69.4 °F 67.3 °F 29.9 in East 2.9 mph 3 mph 93% 0.02 in 403 W/m2
13:22 69.6 °F 67.5 °F 29.9 in ESE 0.9 mph 1 mph 93% 0.01 in 404 W/m2
13:27 70.2 °F 67.6 °F 29.9 in ENE 0.9 mph 2 mph 92% 0.01 in 290 W/m2
13:32 70.3 °F 67.8 °F 29.9 in Calm   3 mph 92% 0.01 in 404 W/m2
13:37 70.7 °F 68.2 °F 29.9 in ENE 2 mph 3 mph 92% 0 in 385 W/m2
13:42 70.7 °F 67.6 °F 29.9 in SE 2 mph 4 mph 90% 0 in 283 W/m2
13:47 70.9 °F 68.2 °F 29.9 in East 2.9 mph 3 mph 91% 0 in 230 W/m2
13:52 71.1 °F 68.4 °F 29.9 in Calm   1 mph 91% 0 in 373 W/m2
13:57 71.2 °F 68.5 °F 29.9 in ESE 0.9 mph 2 mph 91% 0 in 392 W/m2
14:02 71.6 °F 68.5 °F 29.9 in SE 0.9 mph 2 mph 90% 0 in 279 W/m2
14:07 72 °F 68.9 °F 29.9 in East 2 mph 4 mph 90% 0 in 155 W/m2
14:12 72 °F 68.9 °F 29.9 in East 0.9 mph 2 mph 90% 0 in 146 W/m2
14:17 72.1 °F 69.1 °F 29.9 in NW 0.9 mph 4 mph 90% 0 in 232 W/m2
14:22 72.1 °F 69.1 °F 29.9 in Calm   1 mph 90% 0 in 294 W/m2
14:28 72.3 °F 69.3 °F 29.9 in Calm   3 mph 90% 0 in 204 W/m2
14:33 72.7 °F 69.6 °F 29.9 in Calm   1 mph 90% 0 in 225 W/m2
14:38 72.9 °F 68.4 °F 29.9 in ENE 2 mph 2 mph 86% 0 in 216 W/m2
14:43 73.2 °F 69.1 °F 29.9 in NNW 0.9 mph 3 mph 87% 0 in 408 W/m2
14:48 73.4 °F 68.5 °F 29.9 in Calm   4 mph 85% 0 in 248 W/m2
14:53 73.6 °F 68.2 °F 29.9 in Calm   2 mph 83% 0 in 613 W/m2
14:58 74.1 °F 68.9 °F 29.9 in NNE 0.9 mph 4 mph 84% 0 in 874 W/m2
15:03 74.8 °F 68.9 °F 29.9 in NW 2 mph 5 mph 82% 0 in 524 W/m2
15:08 75.4 °F 68.7 °F 29.9 in Calm   2 mph 80% 0 in 392 W/m2
15:13 75.4 °F 69.1 °F 29.9 in Calm   2 mph 81% 0 in 390 W/m2
15:18 75.4 °F 68.7 °F 29.9 in WSW 0.9 mph 4 mph 80% 0 in 369 W/m2
15:23 75 °F 68.4 °F 29.9 in NW 2 mph 3 mph 80% 0 in 281 W/m2
15:28 74.8 °F 67.8 °F 29.9 in Calm   3 mph 79% 0 in 364 W/m2
15:33 75 °F 69.1 °F 29.9 in Calm   2 mph 82% 0 in 325 W/m2
15:38 75.2 °F 69.3 °F 29.9 in NE 2 mph 2 mph 82% 0 in 313 W/m2
15:43 75.4 °F 69.4 °F 29.9 in NNW 0.9 mph 2 mph 82% 0 in 269 W/m2
15:48 75.7 °F 69.1 °F 29.9 in Calm   1 mph 80% 0 in 353 W/m2
15:53 76.3 °F 70.7 °F 29.9 in NE 0.9 mph 1 mph 83% 0 in 334 W/m2
15:58 76.1 °F 69.1 °F 29.9 in East 2.9 mph 4 mph 79% 0 in 334 W/m2
16:03 75.7 °F 68.4 °F 29.9 in WNW 2.9 mph 7 mph 78% 0 in 258 W/m2
16:08 75.4 °F 68 °F 29.9 in West 0.9 mph 5 mph 78% 0 in 160 W/m2
16:13 75 °F 68 °F 29.9 in NW 0.9 mph 2 mph 79% 0 in 109 W/m2
16:18 74.8 °F 68.2 °F 29.9 in NE 0.9 mph 2 mph 80% 0 in 113 W/m2
16:23 74.7 °F 68 °F 29.9 in WNW 0.9 mph 3 mph 80% 0 in 149 W/m2
16:28 74.7 °F 68.7 °F 29.9 in Calm   1 mph 82% 0 in 206 W/m2
16:33 74.5 °F 68.5 °F 29.9 in Calm   2 mph 82% 0 in 213 W/m2
16:38 74.7 °F 68.4 °F 29.9 in Calm   2 mph 81% 0 in 204 W/m2
16:43 74.7 °F 68.4 °F 29.9 in ENE 0.9 mph 2 mph 81% 0 in 192 W/m2
16:48 74.8 °F 67.8 °F 29.9 in WNW 2.9 mph 4 mph 79% 0 in 190 W/m2
16:53 74.8 °F 67.8 °F 29.9 in ENE 0.9 mph 1 mph 79% 0 in 183 W/m2
16:58 74.8 °F 67.5 °F 29.9 in Calm   4 mph 78% 0 in 183 W/m2
17:03 75 °F 68.7 °F 29.9 in NW 4 mph 4 mph 81% 0 in 257 W/m2
17:08 75 °F 67.3 °F 29.9 in East 2 mph 2 mph 77% 0 in 536 W/m2
17:13 75.7 °F 67.6 °F 29.9 in East 2 mph 3 mph 76% 0 in 287 W/m2
17:18 76.3 °F 67.5 °F 29.9 in NE 0.9 mph 3 mph 74% 0 in 204 W/m2
17:23 76.3 °F 67.8 °F 29.9 in West 2 mph 5 mph 75% 0 in 153 W/m2
17:28 75.9 °F 67.1 °F 29.9 in WNW 0.9 mph 3 mph 74% 0 in 141 W/m2
17:33 75.6 °F 67.1 °F 29.9 in Calm   5 mph 75% 0 in 304 W/m2
17:38 75.6 °F 67.1 °F 29.9 in ENE 2 mph 3 mph 75% 0 in 448 W/m2
17:43 75.9 °F 67.5 °F 29.9 in WNW 2 mph 4 mph 75% 0 in 401 W/m2
17:48 76.1 °F 67.6 °F 29.9 in WNW 2 mph 2 mph 75% 0 in 262 W/m2
17:53 75.9 °F 67.1 °F 29.9 in Calm   2 mph 74% 0 in 172 W/m2
17:58 75.7 °F 67.3 °F 29.9 in West 2 mph 6 mph 75% 0 in 167 W/m2
18:03 75.6 °F 67.5 °F 29.9 in West 2 mph 2 mph 76% 0 in 297 W/m2
18:08 75.7 °F 68.4 °F 29.9 in WSW 0.9 mph 5 mph 78% 0 in 227 W/m2
18:13 75.9 °F 67.8 °F 29.9 in SW 4 mph 4 mph 76% 0 in 329 W/m2
18:18 76.3 °F 65.8 °F 29.9 in West 2.9 mph 7 mph 70% 0 in 299 W/m2
18:23 76.3 °F 64.6 °F 29.9 in WNW 2.9 mph 8 mph 67% 0 in 213 W/m2
18:28 75.7 °F 64.8 °F 29.9 in WSW 2.9 mph 4 mph 69% 0 in 77 W/m2
18:33 75 °F 64.9 °F 29.9 in West 2 mph 5 mph 71% 0 in 47 W/m2
18:38 74.3 °F 64.2 °F 29.9 in WNW 2.9 mph 7 mph 71% 0 in 32 W/m2
18:43 73.8 °F 64.6 °F 29.9 in WSW 2 mph 8 mph 73% 0 in 23 W/m2
18:48 73 °F 64.2 °F 29.9 in WNW 2 mph 5 mph 74% 0 in 21 W/m2
18:53 72.7 °F 64.2 °F 29.9 in West 0.9 mph 8 mph 75% 0 in 21 W/m2
18:58 72.1 °F 64.6 °F 29.9 in WNW 0.9 mph 2 mph 77% 0 in 18 W/m2
19:03 71.6 °F 64 °F 29.9 in WNW 2 mph 5 mph 77% 0 in 14 W/m2
19:08 71.4 °F 63.9 °F 29.9 in NW 0.9 mph 5 mph 77% 0 in 7 W/m2
19:13 71.2 °F 63.7 °F 29.9 in WNW 2 mph 5 mph 77% 0 in 5 W/m2
19:18 71.2 °F 63.7 °F 29.9 in West 2 mph 7 mph 77% 0 in 7 W/m2
19:23 71.1 °F 63.5 °F 29.9 in WNW 2 mph 4 mph 77% 0 in 7 W/m2
19:28 70.9 °F 63.7 °F 29.9 in Calm   6 mph 78% 0 in 5 W/m2
19:33 70.7 °F 63.9 °F 29.9 in Calm   2 mph 79% 0 in 5 W/m2
19:38 70.3 °F 63.5 °F 29.9 in NW 0.9 mph 3 mph 79% 0 in 0 W/m2
19:43 70.3 °F 63.9 °F 29.9 in Calm   3 mph 80% 0 in 0 W/m2
19:48 70.3 °F 63.9 °F 29.9 in Calm     80% 0 in 0 W/m2
19:53 70.2 °F 64 °F 29.9 in Calm     81% 0 in 0 W/m2
19:58 69.8 °F 64 °F 29.9 in Calm   1 mph 82% 0 in 0 W/m2
20:03 69.4 °F 64 °F 29.9 in Calm     83% 0 in 0 W/m2
20:09 69.3 °F 63.9 °F 29.9 in Calm     83% 0 in 0 W/m2
20:14 69.1 °F 63.7 °F 29.9 in Calm     83% 0 in 0 W/m2
20:19 69.1 °F 64 °F 29.9 in Calm   1 mph 84% 0 in 0 W/m2
20:24 69.1 °F 64 °F 29.9 in Calm   1 mph 84% 0 in 0 W/m2
20:29 68.7 °F 64 °F 29.9 in Calm   1 mph 85% 0 in 0 W/m2
20:34 68.7 °F 64.4 °F 29.9 in Calm     86% 0 in 0 W/m2
20:39 68.5 °F 64.2 °F 29.9 in Calm   2 mph 86% 0 in 0 W/m2
20:44 68.5 °F 64.2 °F 29.9 in Calm     86% 0 in 0 W/m2
20:49 68.4 °F 64.4 °F 29.9 in Calm   2 mph 87% 0 in 0 W/m2
20:54 68.4 °F 64.4 °F 29.9 in Calm   1 mph 87% 0 in 0 W/m2
20:59 68.4 °F 64.4 °F 29.9 in Calm   2 mph 87% 0 in 0 W/m2
21:04 68.2 °F 64.2 °F 29.9 in Calm     87% 0 in 0 W/m2
21:09 68.2 °F 64.2 °F 29.9 in Calm   2 mph 87% 0 in 0 W/m2
21:14 68.2 °F 64.2 °F 29.9 in Calm   1 mph 87% 0 in 0 W/m2
21:19 68.2 °F 64.2 °F 29.9 in Calm     87% 0 in 0 W/m2
21:24 67.8 °F 63.9 °F 29.9 in Calm     87% 0 in 0 W/m2
21:29 67.8 °F 63.5 °F 29.9 in Calm     86% 0 in 0 W/m2
21:34 67.6 °F 63.3 °F 29.9 in Calm   1 mph 86% 0 in 0 W/m2
21:39 67.5 °F 63.5 °F 29.9 in Calm     87% 0 in 0 W/m2
21:44 67.3 °F 63.7 °F 29.9 in Calm   1 mph 88% 0 in 0 W/m2
21:49 66.9 °F 63.3 °F 29.9 in Calm     88% 0 in 0 W/m2
21:54 66.7 °F 63.1 °F 29.9 in Calm   1 mph 88% 0 in 0 W/m2
21:59 66.6 °F 63.1 °F 29.9 in Calm     89% 0 in 0 W/m2
22:04 66.4 °F 63 °F 29.9 in Calm     89% 0 in 0 W/m2
22:09 66 °F 62.6 °F 29.9 in Calm   1 mph 89% 0 in 0 W/m2
22:14 65.8 °F 62.4 °F 29.9 in NW 0.9 mph 1 mph 89% 0 in 0 W/m2
22:19 65.7 °F 62.6 °F 29.9 in Calm     90% 0 in 0 W/m2
22:24 65.5 °F 62.4 °F 29.9 in Calm     90% 0 in 0 W/m2
22:29 65.5 °F 62.4 °F 29.9 in Calm   2 mph 90% 0 in 0 W/m2
22:34 65.3 °F 62.6 °F 29.9 in Calm     91% 0 in 0 W/m2
22:39 65.1 °F 62.4 °F 29.9 in Calm     91% 0 in 0 W/m2
22:44 65.1 °F 62.4 °F 29.9 in Calm     91% 0 in 0 W/m2
22:49 64.9 °F 62.6 °F 29.9 in Calm     92% 0 in 0 W/m2
22:54 64.9 °F 62.6 °F 29.9 in Calm     92% 0 in 0 W/m2
22:59 64.9 °F 62.6 °F 29.9 in Calm     92% 0 in 0 W/m2
23:04 64.8 °F 62.4 °F 29.9 in Calm     92% 0 in 0 W/m2
23:09 64.8 °F 62.4 °F 29.9 in Calm     92% 0 in 0 W/m2
23:14 64.8 °F 62.4 °F 29.9 in Calm     92% 0 in 0 W/m2
23:19 64.8 °F 62.6 °F 29.9 in Calm     93% 0 in 0 W/m2
23:24 64.6 °F 62.4 °F 29.9 in Calm   1 mph 93% 0 in 0 W/m2
23:29 64.6 °F 62.4 °F 29.9 in Calm     93% 0 in 0 W/m2
23:34 64.6 °F 62.4 °F 29.9 in Calm   1 mph 93% 0 in 0 W/m2
23:39 64.6 °F 62.4 °F 29.9 in Calm     93% 0 in 0 W/m2
23:44 64.4 °F 62.4 °F 29.9 in Calm     93% 0 in 0 W/m2
23:49 64.4 °F 62.4 °F 29.9 in Calm     93% 0 in 0 W/m2
23:54 64.2 °F 62.2 °F 29.9 in Calm     93% 0 in 0 W/m2
23:59 64.2 °F 62.2 °F 29.9 in Calm     93% 0 in 0 W/m2
Juneau County Weather
Compliments of Weather Underground - 4 mb